Time;durP1;ratioP1;P1;durP2;ratioP2;P2;SDS_P1;SDS_P2;PMS_P1;PMS_P2;Temp;Humidity;BMP_temperature;BMP_pressure;BME280_temperature;BME280_humidity;BME280_pressure;Samples;Min_cycle;Max_cycle;Signal;HPM_P1;HPM_P2
2022/06/09 00:02:22;;;;;;;12.45;7.60;;;16.50;99.90;;;;;;5075734;28;20380;-54
2022/06/09 00:04:48;;;;;;;19.92;8.00;;;16.50;99.90;;;;;;5075966;28;20112;-54
2022/06/09 00:07:17;;;;;;;17.08;7.28;;;16.50;99.90;;;;;;5075836;28;20024;-55
2022/06/09 00:09:52;;;;;;;12.18;7.85;;;16.40;99.90;;;;;;5075969;28;20561;-54
2022/06/09 00:12:18;;;;;;;9.07;7.22;;;16.40;99.90;;;;;;5075689;28;20466;-54
2022/06/09 00:14:44;;;;;;;16.23;7.32;;;16.40;99.90;;;;;;5075780;28;20025;-54
2022/06/09 00:17:10;;;;;;;11.93;7.45;;;16.40;99.90;;;;;;5075571;28;20398;-54
2022/06/09 00:19:36;;;;;;;17.65;7.65;;;16.30;99.90;;;;;;5075593;28;20035;-54
2022/06/09 00:22:02;;;;;;;13.75;7.88;;;16.40;99.90;;;;;;5075584;28;20032;-54
2022/06/09 00:24:28;;;;;;;14.20;9.30;;;16.40;99.90;;;;;;5075516;28;20117;-54
2022/06/09 00:26:55;;;;;;;11.65;7.40;;;16.40;99.90;;;;;;5075444;28;20032;-54
2022/06/09 00:29:21;;;;;;;13.98;7.88;;;16.40;99.90;;;;;;5074202;28;20379;-54
2022/06/09 00:31:47;;;;;;;16.02;7.57;;;16.40;99.90;;;;;;5075266;28;20048;-54
2022/06/09 00:34:12;;;;;;;13.05;7.72;;;16.30;99.90;;;;;;5075411;28;20094;-55
2022/06/09 00:36:38;;;;;;;10.73;8.05;;;16.40;99.90;;;;;;5075320;28;20028;-55
2022/06/09 00:39:05;;;;;;;10.23;8.00;;;16.30;99.90;;;;;;5075233;28;20068;-54
2022/06/09 00:41:38;;;;;;;13.73;7.70;;;16.40;99.90;;;;;;5075402;28;20447;-55
2022/06/09 00:44:22;;;;;;;20.80;7.88;;;16.30;99.90;;;;;;5075129;28;20060;-54
2022/06/09 00:47:22;;;;;;;13.13;7.40;;;16.40;99.90;;;;;;5075203;28;20472;-54
2022/06/09 00:50:03;;;;;;;15.00;7.90;;;16.50;99.90;;;;;;5075217;28;20028;-54
2022/06/09 00:52:35;;;;;;;12.35;7.75;;;16.50;99.90;;;;;;5074979;28;20469;-55
2022/06/09 00:55:05;;;;;;;15.20;7.00;;;16.60;99.90;;;;;;5074933;28;20421;-54
2022/06/09 00:58:02;;;;;;;14.05;7.50;;;16.50;99.90;;;;;;5074997;28;20386;-55
2022/06/09 01:00:34;;;;;;;8.68;6.28;;;16.50;99.90;;;;;;5073627;28;20048;-55
2022/06/09 01:03:01;;;;;;;10.98;6.55;;;16.50;99.90;;;;;;5074637;28;20394;-55
2022/06/09 01:05:32;;;;;;;11.93;6.60;;;16.50;99.90;;;;;;5074849;28;20032;-55
2022/06/09 01:08:01;;;;;;;12.75;6.15;;;16.50;99.90;;;;;;5074757;28;20466;-54
2022/06/09 01:10:29;;;;;;;9.68;6.32;;;16.40;99.90;;;;;;5074356;28;20033;-55
2022/06/09 01:12:57;;;;;;;9.73;6.35;;;16.40;99.90;;;;;;5074631;28;20052;-55
2022/06/09 01:15:38;;;;;;;13.25;5.93;;;16.50;99.90;;;;;;5074594;28;20532;-54
2022/06/09 01:18:24;;;;;;;12.02;6.20;;;16.40;99.90;;;;;;5074726;28;20033;-55
2022/06/09 01:21:24;;;;;;;8.43;5.10;;;16.50;99.90;;;;;;5074631;28;20052;-54
2022/06/09 01:23:58;;;;;;;12.90;6.32;;;16.40;99.90;;;;;;5072442;28;20085;-54
2022/06/09 01:26:30;;;;;;;10.35;6.50;;;16.40;99.90;;;;;;5074690;28;20052;-55
2022/06/09 01:29:17;;;;;;;11.00;6.60;;;16.40;99.90;;;;;;5074859;28;20024;-55
2022/06/09 01:31:47;;;;;;;7.80;5.57;;;16.40;99.90;;;;;;5074484;28;20105;-54
2022/06/09 01:34:26;;;;;;;9.75;5.78;;;16.40;99.90;;;;;;5074425;28;20113;-54
2022/06/09 01:37:01;;;;;;;9.55;4.88;;;16.40;99.90;;;;;;5074565;28;20044;-55
2022/06/09 01:39:42;;;;;;;14.13;5.05;;;16.40;99.90;;;;;;5073187;28;20029;-54
2022/06/09 01:42:28;;;;;;;;;;;16.40;99.90;;;;;;5074932;28;20363;-54
2022/06/09 01:45:16;;;;;;;11.02;5.35;;;16.40;99.90;;;;;;5070211;28;19914;-55
2022/06/09 01:47:55;;;;;;;9.48;4.82;;;16.40;99.90;;;;;;5073821;28;20054;-55
2022/06/09 01:50:31;;;;;;;5.03;4.20;;;16.40;99.90;;;;;;5074476;28;20055;-54
2022/06/09 01:52:59;;;;;;;7.53;3.78;;;16.40;99.90;;;;;;5074042;28;20032;-55
2022/06/09 01:55:26;;;;;;;7.93;4.50;;;16.40;99.90;;;;;;5074257;28;20032;-55
2022/06/09 01:57:57;;;;;;;6.20;3.53;;;16.40;99.90;;;;;;5074243;28;20465;-55
2022/06/09 02:00:25;;;;;;;8.40;3.63;;;16.40;99.90;;;;;;5074138;28;20033;-55
2022/06/09 02:03:13;;;;;;;8.27;4.18;;;16.50;99.90;;;;;;5074550;28;20024;-55
2022/06/09 02:05:45;;;;;;;7.40;4.00;;;16.40;99.90;;;;;;5074273;28;20047;-55
2022/06/09 02:08:15;;;;;;;6.65;3.97;;;16.40;99.90;;;;;;5074194;28;20136;-54
2022/06/09 02:10:46;;;;;;;6.75;4.30;;;16.40;99.90;;;;;;5074198;28;20082;-54
2022/06/09 02:13:18;;;;;;;6.60;3.70;;;16.30;99.90;;;;;;5074081;28;20029;-55
2022/06/09 02:15:50;;;;;;;11.27;4.20;;;16.40;99.90;;;;;;5073916;28;20469;-54
2022/06/09 02:18:19;;;;;;;9.77;4.43;;;16.30;99.90;;;;;;5074181;28;20423;-55
2022/06/09 02:21:07;;;;;;;4.45;3.55;;;16.30;99.90;;;;;;5073922;28;20056;-54
2022/06/09 02:23:33;;;;;;;8.48;3.92;;;16.30;99.90;;;;;;5077887;28;20023;-54
2022/06/09 02:25:59;;;;;;;6.53;4.20;;;16.30;99.90;;;;;;5077811;28;20025;-54
2022/06/09 02:28:25;;;;;;;7.68;4.38;;;16.30;99.90;;;;;;5077755;28;20093;-54
2022/06/09 02:30:50;;;;;;;7.90;4.22;;;16.30;99.90;;;;;;5077740;28;20028;-55
2022/06/09 02:33:19;;;;;;;10.32;4.60;;;16.20;99.90;;;;;;5077707;28;20147;-54
2022/06/09 02:35:45;;;;;;;11.38;4.55;;;16.30;99.90;;;;;;5077634;28;20021;-55
2022/06/09 02:38:10;;;;;;;8.38;4.78;;;16.20;99.90;;;;;;5077539;28;20089;-55
2022/06/09 02:40:36;;;;;;;9.20;4.97;;;16.20;99.90;;;;;;5077476;28;20477;-55
2022/06/09 02:43:02;;;;;;;10.05;4.63;;;16.20;99.90;;;;;;5077636;28;20021;-55
2022/06/09 02:45:29;;;;;;;8.27;4.85;;;16.10;99.90;;;;;;5077427;28;20024;-54
2022/06/09 02:47:55;;;;;;;8.15;4.68;;;16.10;99.90;;;;;;5077607;28;20033;-55
2022/06/09 02:50:21;;;;;;;10.80;4.32;;;16.10;99.90;;;;;;5077334;28;20598;-55
2022/06/09 02:52:47;;;;;;;8.02;4.18;;;16.00;99.90;;;;;;5077258;28;20029;-55
2022/06/09 02:55:14;;;;;;;7.72;4.82;;;16.10;99.90;;;;;;5077163;28;20035;-54
2022/06/09 02:57:40;;;;;;;12.38;4.82;;;16.10;99.90;;;;;;5077272;28;20028;-55
2022/06/09 03:00:10;;;;;;;8.00;4.40;;;16.10;99.90;;;;;;5077268;28;20036;-55
2022/06/09 03:02:36;;;;;;;7.93;4.80;;;16.20;99.90;;;;;;5077201;28;20024;-54
2022/06/09 03:05:02;;;;;;;8.40;4.47;;;16.20;99.90;;;;;;5077315;28;20044;-55
2022/06/09 03:07:28;;;;;;;9.07;4.70;;;16.10;99.90;;;;;;5077108;28;20024;-55
2022/06/09 03:09:54;;;;;;;9.20;4.80;;;16.20;99.90;;;;;;5077105;28;20534;-55
2022/06/09 03:12:21;;;;;;;9.18;4.65;;;16.10;99.90;;;;;;5077048;28;20025;-55
2022/06/09 03:14:47;;;;;;;10.13;4.30;;;16.10;99.90;;;;;;5077071;28;20030;-55
2022/06/09 03:17:14;;;;;;;13.52;4.68;;;16.00;99.90;;;;;;5076736;28;20385;-54
2022/06/09 03:19:40;;;;;;;6.30;4.45;;;16.00;99.90;;;;;;5076584;28;20043;-55
2022/06/09 03:22:06;;;;;;;11.63;4.18;;;16.10;99.90;;;;;;5075753;28;20024;-54
2022/06/09 03:24:31;;;;;;;7.57;4.45;;;16.10;99.90;;;;;;5076623;28;20493;-54
2022/06/09 03:26:57;;;;;;;6.40;4.80;;;16.10;99.90;;;;;;5076951;28;20571;-55
2022/06/09 03:29:24;;;;;;;11.70;4.70;;;16.20;99.90;;;;;;5076756;28;20427;-55
2022/06/09 03:31:50;;;;;;;6.47;4.25;;;16.20;99.90;;;;;;5076282;28;20025;-55
2022/06/09 03:34:18;;;;;;;8.07;4.35;;;16.20;99.90;;;;;;5076603;28;20048;-55
2022/06/09 03:36:46;;;;;;;9.50;4.78;;;16.20;99.90;;;;;;5076670;28;20032;-55
2022/06/09 03:39:13;;;;;;;9.05;4.53;;;16.30;99.90;;;;;;5076263;28;20034;-55
2022/06/09 03:41:39;;;;;;;10.40;5.05;;;16.30;99.90;;;;;;5076451;28;20050;-55
2022/06/09 03:44:06;;;;;;;12.10;4.72;;;16.20;99.90;;;;;;5076452;28;20020;-55
2022/06/09 03:46:32;;;;;;;8.82;4.18;;;16.20;99.90;;;;;;5076357;28;20039;-55
2022/06/09 03:48:58;;;;;;;9.13;5.05;;;16.30;99.90;;;;;;5076348;28;20021;-55
2022/06/09 03:51:24;;;;;;;8.60;4.60;;;16.20;99.90;;;;;;5076295;28;20032;-55
2022/06/09 03:53:50;;;;;;;7.60;4.35;;;16.30;99.90;;;;;;5076150;28;20052;-55
2022/06/09 03:56:18;;;;;;;13.45;4.95;;;16.30;99.90;;;;;;5076438;28;20044;-55
2022/06/09 03:58:45;;;;;;;9.88;4.20;;;16.40;99.90;;;;;;5076094;28;20028;-55
2022/06/09 04:01:17;;;;;;;11.43;4.07;;;16.40;99.90;;;;;;5075991;28;20046;-54
2022/06/09 04:03:44;;;;;;;9.20;4.40;;;16.40;99.90;;;;;;5076009;28;20029;-55
2022/06/09 04:06:14;;;;;;;6.00;4.00;;;16.40;99.90;;;;;;5075971;28;20497;-55
2022/06/09 04:08:40;;;;;;;6.63;4.47;;;16.50;99.90;;;;;;5075887;28;20051;-55
2022/06/09 04:11:06;;;;;;;7.55;4.43;;;16.50;99.90;;;;;;5076032;28;20627;-55
2022/06/09 04:13:32;;;;;;;8.07;4.60;;;16.50;99.90;;;;;;5075861;28;20032;-55
2022/06/09 04:15:58;;;;;;;10.48;4.50;;;16.60;99.90;;;;;;5075826;28;20021;-54
2022/06/09 04:18:24;;;;;;;7.88;3.85;;;16.70;99.90;;;;;;5075648;28;20470;-55
2022/06/09 04:20:50;;;;;;;10.00;4.05;;;16.60;99.90;;;;;;5075496;28;20032;-55
2022/06/09 04:23:16;;;;;;;9.80;4.18;;;16.60;99.90;;;;;;5075824;28;20035;-55
2022/06/09 04:25:42;;;;;;;9.30;3.97;;;16.70;99.90;;;;;;5075622;28;20025;-55
2022/06/09 04:28:08;;;;;;;11.70;5.95;;;16.70;99.90;;;;;;5075559;28;20031;-55
2022/06/09 04:30:34;;;;;;;9.57;5.55;;;16.70;99.90;;;;;;5075346;28;20020;-55
2022/06/09 04:33:00;;;;;;;24.80;6.97;;;16.70;99.90;;;;;;5075556;28;20367;-55
2022/06/09 04:35:26;;;;;;;13.27;6.22;;;16.80;99.90;;;;;;5075170;28;20560;-55
2022/06/09 04:38:01;;;;;;;14.50;5.95;;;17.00;99.90;;;;;;5075359;28;20029;-55
2022/06/09 04:40:40;;;;;;;14.75;6.07;;;17.10;99.90;;;;;;5075211;28;20098;-55
2022/06/09 04:43:11;;;;;;;21.15;6.85;;;17.10;99.90;;;;;;5075065;28;20029;-55
2022/06/09 04:45:39;;;;;;;17.17;6.78;;;17.10;99.90;;;;;;5074685;28;20028;-55
2022/06/09 04:48:06;;;;;;;13.10;6.20;;;17.20;99.90;;;;;;5075157;28;20032;-55
2022/06/09 04:50:32;;;;;;;15.98;7.38;;;17.30;99.90;;;;;;5075580;28;20040;-55
2022/06/09 04:52:58;;;;;;;14.13;7.00;;;17.30;99.90;;;;;;5075023;28;20071;-55
2022/06/09 04:55:25;;;;;;;11.52;5.95;;;17.20;99.90;;;;;;5074992;28;20056;-56
2022/06/09 04:57:51;;;;;;;7.80;5.35;;;17.30;99.90;;;;;;5075125;28;20033;-55
2022/06/09 05:00:18;;;;;;;9.25;5.97;;;17.30;99.90;;;;;;5074793;28;20039;-55
2022/06/09 05:02:44;;;;;;;14.77;6.70;;;17.50;99.90;;;;;;5074855;28;20094;-55
2022/06/09 05:05:18;;;;;;;10.38;5.85;;;17.60;99.90;;;;;;5074842;28;20033;-55
2022/06/09 05:07:44;;;;;;;11.82;5.80;;;17.70;99.90;;;;;;5074806;28;20029;-55
2022/06/09 05:10:10;;;;;;;8.57;4.68;;;17.80;99.90;;;;;;5074696;28;20036;-55
2022/06/09 05:12:36;;;;;;;13.63;4.82;;;17.90;99.90;;;;;;5073833;28;20370;-55
2022/06/09 05:15:05;;;;;;;15.32;5.70;;;18.00;99.90;;;;;;5072736;28;20035;-55
2022/06/09 05:17:31;;;;;;;7.93;4.40;;;18.20;99.90;;;;;;5074187;28;20482;-55
2022/06/09 05:19:57;;;;;;;7.93;4.45;;;18.20;99.90;;;;;;5074108;28;20024;-55
2022/06/09 05:22:23;;;;;;;9.80;3.50;;;18.40;99.90;;;;;;5073886;28;20392;-55
2022/06/09 05:24:48;;;;;;;11.93;4.97;;;18.50;99.90;;;;;;5072527;28;20513;-55
2022/06/09 05:27:14;;;;;;;18.88;5.40;;;18.60;99.90;;;;;;5073633;28;20525;-55
2022/06/09 05:29:42;;;;;;;13.20;5.35;;;18.60;99.90;;;;;;5072923;28;20355;-55
2022/06/09 05:32:08;;;;;;;14.70;5.97;;;18.60;99.90;;;;;;5073757;28;20080;-55
2022/06/09 05:34:34;;;;;;;7.82;4.05;;;18.60;99.90;;;;;;5074386;28;20025;-55
2022/06/09 05:37:00;;;;;;;8.85;4.32;;;18.60;99.90;;;;;;5074569;28;20111;-55
2022/06/09 05:44:59;;;;;;;11.07;4.00;;;18.80;99.90;;;;;;5074233;28;20451;-55
2022/06/09 05:47:25;;;;;;;18.27;5.85;;;18.90;99.90;;;;;;5074148;28;20029;-55
2022/06/09 05:49:52;;;;;;;12.02;4.35;;;19.00;99.90;;;;;;5074181;28;20036;-55
2022/06/09 05:52:22;;;;;;;18.70;5.80;;;18.90;99.90;;;;;;5073544;28;20518;-55
2022/06/09 05:54:49;;;;;;;9.40;3.92;;;18.90;99.90;;;;;;5073551;28;20044;-55
2022/06/09 05:57:15;;;;;;;9.40;4.82;;;19.00;99.90;;;;;;5077636;28;20033;-55
2022/06/09 05:59:41;;;;;;;11.32;4.07;;;18.90;99.90;;;;;;5077596;28;20033;-55
2022/06/09 06:02:08;;;;;;;18.02;5.30;;;18.80;99.90;;;;;;5077394;28;20118;-55
2022/06/09 06:04:35;;;;;;;12.85;5.32;;;18.90;99.90;;;;;;5077046;28;20082;-55
2022/06/09 06:07:01;;;;;;;15.73;3.72;;;19.10;99.90;;;;;;5077028;28;20092;-55
2022/06/09 06:09:27;;;;;;;17.65;5.30;;;19.20;99.90;;;;;;5077892;28;20032;-55
2022/06/09 06:11:53;;;;;;;14.57;4.20;;;19.30;99.90;;;;;;5078652;28;20052;-55
2022/06/09 06:14:22;;;;;;;13.65;4.38;;;19.40;99.90;;;;;;5075917;28;20056;-55
2022/06/09 06:16:48;;;;;;;7.53;4.20;;;19.40;99.90;;;;;;5077762;28;20040;-55
2022/06/09 06:19:17;;;;;;;6.85;3.63;;;19.30;99.90;;;;;;5076913;28;20036;-55
2022/06/09 06:21:45;;;;;;;10.43;3.92;;;19.40;99.90;;;;;;5077629;28;20440;-55
2022/06/09 06:24:12;;;;;;;7.13;3.50;;;19.50;99.90;;;;;;5084021;28;20474;-55
2022/06/09 06:26:39;;;;;;;6.18;3.15;;;19.60;99.90;;;;;;5074779;28;20031;-55
2022/06/09 06:29:07;;;;;;;8.40;3.85;;;19.70;99.90;;;;;;5074964;28;20036;-55
2022/06/09 06:31:33;;;;;;;16.67;4.07;;;19.80;99.90;;;;;;5077330;28;20369;-55
2022/06/09 06:33:59;;;;;;;11.88;3.70;;;19.80;99.90;;;;;;5075810;28;20028;-55
2022/06/09 06:36:25;;;;;;;12.18;4.70;;;19.90;99.90;;;;;;5077078;28;20823;-55
2022/06/09 06:38:51;;;;;;;16.02;3.95;;;19.80;99.90;;;;;;5075416;28;20126;-55
2022/06/09 06:41:18;;;;;;;18.52;4.28;;;20.00;99.90;;;;;;5077276;28;20031;-55
2022/06/09 06:43:45;;;;;;;9.02;3.70;;;20.20;99.90;;;;;;5076675;28;20020;-55
2022/06/09 06:46:22;;;;;;;21.13;5.93;;;20.30;99.90;;;;;;5076678;28;20024;-55
2022/06/09 06:48:49;;;;;;;6.72;3.50;;;20.50;99.90;;;;;;5076318;28;20485;-55
2022/06/09 06:51:15;;;;;;;8.23;3.70;;;20.60;99.90;;;;;;5073167;28;20486;-55
2022/06/09 06:53:47;;;;;;;10.57;3.85;;;20.50;99.90;;;;;;5075439;28;20492;-55
2022/06/09 06:56:14;;;;;;;16.38;4.75;;;20.50;99.90;;;;;;5075765;28;20067;-55
2022/06/09 06:58:39;;;;;;;12.15;3.72;;;20.20;99.90;;;;;;5075804;28;20056;-55
2022/06/09 07:01:05;;;;;;;10.00;4.18;;;20.40;99.90;;;;;;5077750;28;20086;-55
2022/06/09 07:03:32;;;;;;;15.35;5.22;;;20.70;99.90;;;;;;5076907;28;20044;-56
2022/06/09 07:05:58;;;;;;;16.00;5.07;;;20.70;99.90;;;;;;5092169;28;20107;-55
2022/06/09 07:08:24;;;;;;;14.80;4.10;;;20.70;99.90;;;;;;5090116;28;20386;-55
2022/06/09 07:10:51;;;;;;;11.93;3.97;;;20.90;99.90;;;;;;5076063;28;20016;-55
2022/06/09 07:13:18;;;;;;;6.35;4.15;;;21.10;99.90;;;;;;5068863;28;20101;-55
2022/06/09 07:15:44;;;;;;;15.00;4.45;;;21.30;99.90;;;;;;5086702;28;20168;-55
2022/06/09 07:18:10;;;;;;;8.77;3.60;;;21.30;99.90;;;;;;5071761;28;20061;-55
2022/06/09 07:20:40;;;;;;;7.97;3.15;;;21.30;99.90;;;;;;5072331;28;20024;-55
2022/06/09 07:23:06;;;;;;;7.47;3.50;;;21.00;99.90;;;;;;5073751;28;20059;-55
2022/06/09 07:25:32;;;;;;;6.32;3.38;;;21.00;99.90;;;;;;5072272;28;20068;-55
2022/06/09 07:27:58;;;;;;;12.05;3.65;;;21.00;99.90;;;;;;5074907;28;20094;-55
2022/06/09 07:30:27;;;;;;;6.72;3.60;;;21.00;99.90;;;;;;5075514;28;20024;-55
2022/06/09 07:32:54;;;;;;;7.07;3.45;;;20.80;99.90;;;;;;5088824;28;20055;-55
2022/06/09 07:35:23;;;;;;;8.85;3.83;;;20.90;99.90;;;;;;5072902;28;20035;-55
2022/06/09 07:37:48;;;;;;;9.18;3.55;;;20.70;99.90;;;;;;5087606;28;20076;-55
2022/06/09 07:40:14;;;;;;;14.45;4.15;;;20.70;99.90;;;;;;5073092;28;20416;-55
2022/06/09 07:42:41;;;;;;;4.80;3.28;;;20.80;99.90;;;;;;5074358;28;20019;-55
2022/06/09 07:45:09;;;;;;;10.02;4.00;;;20.70;99.90;;;;;;5073972;28;20355;-55
2022/06/09 07:47:35;;;;;;;12.77;4.43;;;20.80;99.90;;;;;;5077267;28;20028;-55
2022/06/09 07:50:02;;;;;;;9.73;4.63;;;20.90;99.90;;;;;;5073882;28;20066;-55
2022/06/09 07:52:28;;;;;;;12.20;4.53;;;21.00;99.90;;;;;;5075873;28;20020;-55
2022/06/09 07:54:55;;;;;;;7.72;4.05;;;21.10;99.90;;;;;;5075495;28;20106;-55
2022/06/09 08:09:22;;;;;;;7.97;4.07;;;22.30;99.90;;;;;;5068534;28;20469;-55
2022/06/09 08:11:51;;;;;;;17.70;5.05;;;22.50;99.90;;;;;;5073300;28;20032;-55
2022/06/09 08:14:20;;;;;;;21.65;5.68;;;22.50;99.90;;;;;;5071737;28;20020;-55
2022/06/09 08:16:48;;;;;;;8.05;4.15;;;22.40;99.90;;;;;;5072481;28;20470;-55
2022/06/09 08:19:14;;;;;;;6.57;3.95;;;22.20;99.90;;;;;;5071159;28;20082;-55
2022/06/09 08:21:40;;;;;;;11.45;3.80;;;22.30;99.90;;;;;;5073825;28;20051;-55
2022/06/09 08:24:06;;;;;;;8.70;3.65;;;22.30;99.90;;;;;;5073752;28;20057;-55
2022/06/09 08:26:33;;;;;;;10.27;4.68;;;22.40;99.90;;;;;;5074558;28;20488;-55
2022/06/09 08:28:59;;;;;;;23.38;4.88;;;22.20;99.90;;;;;;5074308;28;20052;-55
2022/06/09 08:31:26;;;;;;;8.68;3.92;;;22.40;99.90;;;;;;5074075;28;20406;-55
2022/06/09 08:33:52;;;;;;;8.93;3.58;;;22.70;99.90;;;;;;5106058;28;20035;-55
2022/06/09 08:36:20;;;;;;;16.08;4.40;;;22.90;99.90;;;;;;5075465;28;20489;-55
2022/06/09 08:38:48;;;;;;;9.48;3.53;;;23.30;99.90;;;;;;5074210;28;20484;-55
2022/06/09 08:41:27;;;;;;;7.65;3.45;;;23.60;99.90;;;;;;5072847;28;20044;-55
2022/06/09 08:44:05;;;;;;;11.20;4.22;;;23.80;99.90;;;;;;5073618;28;20067;-55
2022/06/09 08:46:40;;;;;;;10.90;4.10;;;24.10;99.90;;;;;;5073364;28;20017;-55
2022/06/09 08:49:30;;;;;;;12.95;4.18;;;24.30;99.10;;;;;;5073892;28;20373;-55
2022/06/09 08:52:03;;;;;;;14.85;4.50;;;24.60;97.70;;;;;;5069622;28;20444;-55
2022/06/09 08:54:35;;;;;;;16.13;4.80;;;25.20;98.20;;;;;;5072709;28;20847;-55
2022/06/09 08:57:11;;;;;;;15.75;5.10;;;25.40;96.00;;;;;;5072831;28;20400;-55
2022/06/09 08:59:39;;;;;;;18.45;5.55;;;25.50;94.90;;;;;;5073282;28;20214;-55
2022/06/09 09:02:38;;;;;;;21.75;5.22;;;25.30;90.10;;;;;;5071860;28;20115;-55
2022/06/09 09:05:37;;;;;;;13.02;4.13;;;25.20;91.80;;;;;;5073807;28;20428;-55
2022/06/09 09:08:06;;;;;;;7.03;3.10;;;24.80;91.60;;;;;;5056532;28;20119;-55
2022/06/09 09:10:38;;;;;;;9.63;3.55;;;25.20;93.00;;;;;;5089198;28;20037;-55
2022/06/09 09:13:41;;;;;;;11.55;3.67;;;25.10;91.20;;;;;;5073232;28;20029;-55
2022/06/09 09:16:31;;;;;;;11.35;3.45;;;24.80;94.40;;;;;;5087628;28;20028;-55
2022/06/09 09:19:31;;;;;;;13.27;4.22;;;24.80;93.20;;;;;;5042366;28;20037;-55
2022/06/09 09:22:23;;;;;;;;;;;25.10;88.30;;;;;;5072720;28;20100;-55
2022/06/09 09:25:00;;;;;;;7.03;3.00;;;24.90;92.10;;;;;;5071288;28;19955;-55
2022/06/09 09:27:42;;;;;;;6.55;3.10;;;25.50;91.30;;;;;;5084762;28;20429;-55
2022/06/09 09:30:20;;;;;;;17.67;4.50;;;25.50;88.80;;;;;;5068452;28;20036;-55
2022/06/09 09:32:52;;;;;;;16.17;3.75;;;25.90;91.00;;;;;;5074078;28;20032;-55
2022/06/09 09:35:23;;;;;;;15.63;3.83;;;26.30;80.50;;;;;;5088189;28;20028;-55
2022/06/09 09:37:50;;;;;;;;;;;26.30;85.10;;;;;;5089787;28;20028;-55
2022/06/09 09:40:31;;;;;;;6.82;2.78;;;26.70;79.00;;;;;;5074086;28;19912;-55
2022/06/09 09:43:01;;;;;;;12.63;4.03;;;26.70;72.20;;;;;;5074174;28;20077;-55
2022/06/09 09:45:49;;;;;;;7.10;3.22;;;26.60;75.50;;;;;;5073396;28;20024;-55
2022/06/09 09:48:18;;;;;;;10.18;4.28;;;27.00;90.80;;;;;;5071725;28;20040;-55
2022/06/09 09:50:50;;;;;;;11.85;3.42;;;27.50;78.20;;;;;;5073777;28;20135;-55
2022/06/09 09:53:19;;;;;;;7.70;3.50;;;28.10;67.50;;;;;;5070938;28;20386;-55
2022/06/09 09:55:56;;;;;;;11.40;4.20;;;28.40;60.80;;;;;;5074144;28;20028;-55
2022/06/09 09:58:26;;;;;;;7.70;3.17;;;28.60;61.80;;;;;;5073369;28;20103;-55
2022/06/09 10:00:58;;;;;;;13.95;3.92;;;28.40;60.70;;;;;;5072991;28;20040;-55
2022/06/09 10:08:35;;;;;;;9.48;3.67;;;28.50;58.20;;;;;;5072608;28;20413;-55
2022/06/09 10:09:26;;;;;;;4.50;2.20;;;29.10;63.40;;;;;;5072883;28;20539;-55
2022/06/09 10:11:59;;;;;;;4.78;2.90;;;29.50;53.60;;;;;;5073402;28;20031;-55
2022/06/09 10:14:39;;;;;;;10.23;3.03;;;29.00;54.80;;;;;;5072556;28;20041;-55
2022/06/09 10:17:23;;;;;;;4.10;2.70;;;28.20;54.50;;;;;;5070761;28;20040;-56
2022/06/09 10:20:17;;;;;;;13.65;4.45;;;27.90;58.40;;;;;;5071442;28;20080;-55
2022/06/09 10:23:06;;;;;;;17.60;5.38;;;28.20;58.60;;;;;;5073951;28;20021;-55
2022/06/09 10:25:50;;;;;;;8.40;3.22;;;28.30;61.30;;;;;;5078075;28;20035;-55
2022/06/09 10:28:30;;;;;;;20.63;3.60;;;28.40;57.70;;;;;;5073715;28;20024;-55
2022/06/09 10:31:08;;;;;;;7.07;2.67;;;28.60;72.20;;;;;;5064645;28;20068;-55
2022/06/09 10:33:47;;;;;;;3.55;1.55;;;28.10;56.10;;;;;;5073184;28;20028;-55
2022/06/09 10:36:22;;;;;;;3.17;1.80;;;26.90;55.70;;;;;;5073762;28;20366;-55
2022/06/09 10:38:54;;;;;;;6.43;2.58;;;27.40;55.80;;;;;;5072818;28;20028;-55
2022/06/09 10:41:40;;;;;;;3.80;1.80;;;27.80;56.20;;;;;;5087988;28;20051;-55
2022/06/09 10:44:15;;;;;;;4.45;2.67;;;28.10;55.50;;;;;;5071373;28;20052;-55
2022/06/09 10:55:14;;;;;;;4.15;2.70;;;28.70;59.20;;;;;;5074376;28;20098;-55
2022/06/09 10:55:57;;;;;;;10.05;3.63;;;29.20;57.90;;;;;;5072731;28;20036;-55
2022/06/09 10:58:42;;;;;;;12.50;3.42;;;29.10;58.90;;;;;;5082767;28;20041;-55
2022/06/09 11:01:18;;;;;;;14.75;5.10;;;28.80;58.40;;;;;;5100489;28;20185;-55
2022/06/09 11:03:48;;;;;;;3.72;2.70;;;28.50;62.40;;;;;;5077202;28;20055;-55
2022/06/09 11:06:22;;;;;;;14.75;3.83;;;28.20;60.10;;;;;;5076894;28;20029;-55
2022/06/09 11:09:14;;;;;;;17.27;3.50;;;28.10;65.50;;;;;;5101016;28;20470;-55
2022/06/09 11:12:01;;;;;;;11.38;3.22;;;28.00;66.60;;;;;;5074342;28;20120;-55
2022/06/09 11:14:57;;;;;;;7.30;2.35;;;27.70;74.70;;;;;;5075901;28;20039;-55
2022/06/09 11:17:26;;;;;;;5.22;2.95;;;27.90;69.70;;;;;;5074269;28;20025;-55
2022/06/09 11:19:58;;;;;;;5.93;2.83;;;28.30;56.90;;;;;;5071077;28;20467;-55
2022/06/09 11:22:47;;;;;;;12.18;3.65;;;28.70;60.70;;;;;;5075624;28;20047;-55
2022/06/09 11:25:22;;;;;;;4.10;2.53;;;29.80;63.90;;;;;;5065639;28;20035;-55
2022/06/09 11:27:48;;;;;;;6.38;3.08;;;30.10;62.60;;;;;;5073494;28;20038;-56
2022/06/09 11:30:30;;;;;;;14.55;4.32;;;29.90;58.40;;;;;;5071574;28;20391;-55
2022/06/09 11:33:26;;;;;;;16.25;4.90;;;29.60;58.10;;;;;;5073077;28;20351;-55
2022/06/09 11:36:12;;;;;;;19.88;3.97;;;29.20;63.40;;;;;;5074278;28;20036;-55
2022/06/09 11:38:47;;;;;;;5.47;2.83;;;28.90;69.90;;;;;;5075804;28;20020;-55
2022/06/09 11:41:32;;;;;;;9.73;3.85;;;28.40;75.50;;;;;;5075677;28;20101;-55
2022/06/09 11:44:10;;;;;;;27.63;5.53;;;28.10;83.10;;;;;;5076296;28;20354;-55
2022/06/09 11:46:39;;;;;;;7.85;3.38;;;27.90;83.50;;;;;;5076318;28;20033;-55
2022/06/09 11:49:14;;;;;;;5.57;2.90;;;27.80;80.40;;;;;;5079306;28;20474;-55
2022/06/09 11:51:41;;;;;;;5.63;3.25;;;27.50;89.50;;;;;;5072131;28;20501;-55
2022/06/09 11:54:28;;;;;;;11.68;4.35;;;26.90;93.10;;;;;;5106334;28;20048;-55
2022/06/09 11:57:19;;;;;;;15.02;4.38;;;26.80;90.00;;;;;;5077743;28;20028;-61
2022/06/09 12:00:25;;;;;;;10.25;4.88;;;26.60;92.30;;;;;;5076506;28;20139;-61
2022/06/09 12:03:19;;;;;;;42.25;8.00;;;26.10;94.20;;;;;;5075793;28;20029;-60
2022/06/09 12:06:14;;;;;;;26.10;5.32;;;25.80;98.80;;;;;;5091195;28;20020;-61
2022/06/09 12:09:06;;;;;;;14.27;3.70;;;25.60;99.40;;;;;;5057807;28;20107;-61
2022/06/09 12:11:51;;;;;;;8.65;3.78;;;25.20;99.90;;;;;;5074721;28;20120;-60
2022/06/09 12:14:29;;;;;;;23.70;5.55;;;25.20;99.90;;;;;;5073886;28;20055;-60
2022/06/09 12:17:07;;;;;;;13.73;4.10;;;25.20;99.90;;;;;;5073818;28;20025;-60
2022/06/09 12:19:55;;;;;;;13.35;4.30;;;25.10;99.90;;;;;;5075652;28;20093;-61
2022/06/09 12:22:40;;;;;;;9.00;3.67;;;25.00;99.90;;;;;;5075506;28;20492;-60
2022/06/09 12:25:10;;;;;;;7.22;3.65;;;24.80;99.90;;;;;;5074796;28;20020;-60
2022/06/09 12:27:41;;;;;;;10.73;3.47;;;24.70;99.90;;;;;;5075248;28;20051;-60
2022/06/09 12:30:27;;;;;;;20.02;5.63;;;24.70;99.90;;;;;;5073354;28;20074;-60
2022/06/09 12:33:11;;;;;;;9.88;4.78;;;24.60;99.90;;;;;;5088121;28;20469;-60
2022/06/09 12:35:49;;;;;;;9.88;3.88;;;24.40;99.90;;;;;;5073092;28;20112;-60
2022/06/09 12:38:24;;;;;;;10.05;3.67;;;24.30;99.90;;;;;;5073215;28;20025;-60
2022/06/09 12:40:54;;;;;;;19.35;5.22;;;24.10;99.90;;;;;;5074408;28;20044;-60
2022/06/09 12:43:35;;;;;;;17.58;4.82;;;23.90;99.90;;;;;;5074430;28;20023;-60
2022/06/09 12:46:28;;;;;;;10.32;3.80;;;23.90;99.90;;;;;;5072407;28;20016;-60
2022/06/09 12:48:55;;;;;;;5.55;1.67;;;23.30;88.60;;;;;;5074981;28;20466;-60
2022/06/09 12:51:29;;;;;;;2.95;1.40;;;22.90;82.10;;;;;;5074961;28;20073;-60
2022/06/09 12:54:26;;;;;;;1.95;1.30;;;22.50;92.70;;;;;;5075059;28;20485;-60
2022/06/09 12:57:11;;;;;;;2.83;1.30;;;21.50;99.70;;;;;;5071149;28;20070;-60
2022/06/09 12:59:40;;;;;;;5.53;1.60;;;21.00;99.90;;;;;;5070533;28;20041;-60
2022/06/09 13:02:38;;;;;;;5.45;1.80;;;20.40;99.90;;;;;;5074220;28;20036;-60
2022/06/09 13:05:16;;;;;;;5.65;1.90;;;20.10;99.90;;;;;;5089835;28;20106;-59
2022/06/09 13:08:25;;;;;;;2.92;2.05;;;19.90;99.90;;;;;;5074132;28;20059;-60
2022/06/09 13:11:07;;;;;;;8.02;2.53;;;19.80;99.90;;;;;;5064296;28;20367;-59
2022/06/09 13:13:42;;;;;;;5.38;2.42;;;19.70;99.90;;;;;;5087177;28;20478;-60
2022/06/09 13:16:22;;;;;;;9.70;2.35;;;19.30;99.90;;;;;;5074182;28;20385;-60
2022/06/09 13:18:57;;;;;;;4.05;2.30;;;19.20;99.90;;;;;;5073442;28;20116;-59
2022/06/09 13:21:33;;;;;;;8.90;2.13;;;19.10;99.90;;;;;;5074629;28;20432;-60
2022/06/09 13:24:16;;;;;;;8.00;2.42;;;19.00;99.90;;;;;;5074749;28;20470;-60
2022/06/09 13:26:44;;;;;;;3.83;2.25;;;19.10;99.90;;;;;;5074445;28;20065;-59
2022/06/09 13:29:22;;;;;;;6.13;2.70;;;19.10;99.90;;;;;;5073277;28;20363;-59
2022/06/09 13:31:52;;;;;;;7.13;2.97;;;19.20;99.90;;;;;;5074650;28;20063;-59
2022/06/09 13:34:24;;;;;;;9.48;4.50;;;19.20;99.90;;;;;;5074446;28;20036;-59
2022/06/09 13:36:56;;;;;;;9.23;3.53;;;19.10;99.90;;;;;;5074544;28;20097;-60
2022/06/09 13:39:45;;;;;;;9.85;2.95;;;19.20;99.90;;;;;;5074183;28;20036;-59